createdAt,value
2022-09-20T00:01:23.285Z,96677.56
2022-09-20T00:03:54.965Z,96667.50
2022-09-20T00:06:25.578Z,96667.50
2022-09-20T00:08:53.720Z,96668.38
2022-09-20T00:11:24.036Z,96663.84
2022-09-20T00:13:54.635Z,96665.72
2022-09-20T00:16:25.142Z,96662.34
2022-09-20T00:18:56.779Z,96666.75
2022-09-20T00:21:27.068Z,96673.00
2022-09-20T00:23:56.740Z,96675.47
2022-09-20T00:26:25.187Z,96670.34
2022-09-20T00:28:53.714Z,96663.38
2022-09-20T00:31:22.291Z,96669.88
2022-09-20T00:34:08.267Z,96669.56
2022-09-20T00:36:38.076Z,96672.41
2022-09-20T00:39:06.383Z,96666.97
2022-09-20T00:41:34.739Z,96664.81
2022-09-20T00:44:04.030Z,96665.53
2022-09-20T00:46:37.217Z,96675.72
2022-09-20T00:49:07.942Z,96670.00
2022-09-20T00:51:39.242Z,96663.66
2022-09-20T00:54:08.838Z,96664.28
2022-09-20T00:56:39.123Z,96666.91
2022-09-20T00:59:12.839Z,96661.00
2022-09-20T01:01:41.529Z,96662.84
2022-09-20T01:04:10.143Z,96662.53
2022-09-20T01:06:40.069Z,96668.06
2022-09-20T01:09:09.119Z,96664.63
2022-09-20T01:11:38.339Z,96662.56
2022-09-20T01:14:06.686Z,96661.59
2022-09-20T01:16:35.604Z,96660.09
2022-09-20T01:19:07.270Z,96663.75
2022-09-20T01:21:35.864Z,96657.69
2022-09-20T01:24:10.739Z,96662.59
2022-09-20T01:26:56.578Z,96662.97
2022-09-20T01:29:36.980Z,96662.25
2022-09-20T01:32:09.634Z,96663.09
2022-09-20T01:34:43.067Z,96655.84
2022-09-20T01:37:17.637Z,96652.81
2022-09-20T01:39:53.647Z,96655.69
2022-09-20T01:42:26.625Z,96653.19
2022-09-20T01:45:01.844Z,96651.69
2022-09-20T01:47:34.728Z,96644.38
2022-09-20T01:50:09.400Z,96642.00
2022-09-20T01:53:16.031Z,96640.72
2022-09-20T01:56:19.978Z,96637.66
2022-09-20T01:59:24.702Z,96639.59
2022-09-20T02:02:19.473Z,96628.56
2022-09-20T02:05:20.486Z,96635.81
2022-09-20T02:08:07.851Z,96643.81
2022-09-20T02:10:43.026Z,96642.31
2022-09-20T02:13:12.714Z,96641.91
2022-09-20T02:16:07.588Z,96645.13
2022-09-20T02:18:49.072Z,96639.16
2022-09-20T02:21:22.981Z,96641.94
2022-09-20T02:23:57.928Z,96634.56
2022-09-20T02:26:34.964Z,96638.69
2022-09-20T02:29:11.448Z,96638.00
2022-09-20T02:32:02.013Z,96643.25
2022-09-20T02:34:45.613Z,96649.19
2022-09-20T02:37:31.556Z,96642.88
2022-09-20T02:40:11.351Z,96652.94
2022-09-20T02:42:45.131Z,96653.34
2022-09-20T02:45:19.940Z,96644.09
2022-09-20T02:47:48.819Z,96652.72
2022-09-20T02:50:26.439Z,96652.06
2022-09-20T02:53:05.829Z,96656.19
2022-09-20T02:55:41.120Z,96651.03
2022-09-20T02:58:22.404Z,96658.19
2022-09-20T03:00:56.054Z,96665.97
2022-09-20T03:03:33.153Z,96657.00
2022-09-20T03:06:08.490Z,96665.63
2022-09-20T03:08:40.858Z,96654.50
2022-09-20T03:11:18.697Z,96659.97
2022-09-20T03:14:04.298Z,96654.44
2022-09-20T03:16:39.132Z,96659.03
2022-09-20T03:19:16.730Z,96652.78
2022-09-20T03:21:53.472Z,96654.56
2022-09-20T03:24:30.395Z,96659.69
2022-09-20T03:27:05.563Z,96667.34
2022-09-20T03:29:43.751Z,96661.19
2022-09-20T03:32:23.633Z,96656.03
2022-09-20T03:34:59.190Z,96655.09
2022-09-20T03:37:38.791Z,96657.78
2022-09-20T03:40:49.142Z,96652.88
2022-09-20T03:43:27.506Z,96658.53
2022-09-20T03:46:07.525Z,96662.28
2022-09-20T03:48:55.840Z,96661.09
2022-09-20T03:51:33.824Z,96663.13
2022-09-20T03:54:38.246Z,96667.81
2022-09-20T03:57:39.074Z,96674.84
2022-09-20T04:00:31.095Z,96662.53
2022-09-20T04:03:19.032Z,96666.41
2022-09-20T04:05:55.164Z,96668.41
2022-09-20T04:08:41.805Z,96664.09
2022-09-20T04:11:16.817Z,96671.19
2022-09-20T04:13:52.341Z,96664.22
2022-09-20T04:16:27.787Z,96662.19
2022-09-20T04:18:58.590Z,96668.91
2022-09-20T04:21:30.556Z,96672.66
2022-09-20T04:24:02.785Z,96669.97
2022-09-20T04:26:33.047Z,96666.41
2022-09-20T04:29:14.363Z,96664.63
2022-09-20T04:31:48.862Z,96666.66
2022-09-20T04:34:23.840Z,96662.38
2022-09-20T04:36:57.653Z,96666.13
2022-09-20T04:39:36.902Z,96658.16
2022-09-20T04:42:56.119Z,96665.25
2022-09-20T04:45:57.320Z,96669.88
2022-09-20T04:48:57.031Z,96676.97
2022-09-20T04:51:58.319Z,96674.19
2022-09-20T04:54:52.700Z,96682.66
2022-09-20T04:57:43.213Z,96678.84
2022-09-20T05:00:15.009Z,96671.75
2022-09-20T05:03:30.102Z,96676.59
2022-09-20T05:06:45.059Z,96679.09
2022-09-20T05:09:47.136Z,96679.50
2022-09-20T05:12:37.259Z,96688.28
2022-09-20T05:15:14.088Z,96687.34
2022-09-20T05:17:59.645Z,96692.75
2022-09-20T05:20:47.713Z,96690.50
2022-09-20T05:23:29.071Z,96688.78
2022-09-20T05:26:14.095Z,96693.78
2022-09-20T05:28:51.743Z,96698.63
2022-09-20T05:31:26.321Z,96694.88
2022-09-20T05:33:58.381Z,96702.16
2022-09-20T05:36:34.754Z,96704.50
2022-09-20T05:39:13.306Z,96713.63
2022-09-20T05:41:45.193Z,96702.31
2022-09-20T05:44:28.542Z,96699.84
2022-09-20T05:47:05.157Z,96705.41
2022-09-20T05:49:42.701Z,96699.19
2022-09-20T05:52:37.111Z,96708.72
2022-09-20T05:55:29.937Z,96708.09
2022-09-20T05:58:17.438Z,96715.59
2022-09-20T06:00:49.692Z,96718.50
2022-09-20T06:03:27.173Z,96715.09
2022-09-20T06:06:02.503Z,96719.72
2022-09-20T06:09:00.489Z,96721.22
2022-09-20T06:11:54.983Z,96730.00
2022-09-20T06:14:36.235Z,96732.13
2022-09-20T06:17:11.995Z,96731.84
2022-09-20T06:19:45.502Z,96732.06
2022-09-20T06:22:17.729Z,96728.97
2022-09-20T06:24:49.682Z,96734.31
2022-09-20T06:27:22.210Z,96726.47
2022-09-20T06:29:54.328Z,96719.63
2022-09-20T06:32:23.303Z,96728.06
2022-09-20T06:34:53.110Z,96725.91
2022-09-20T06:37:54.885Z,96728.59
2022-09-20T06:40:50.457Z,96731.66
2022-09-20T06:43:20.458Z,96731.03
2022-09-20T06:45:49.519Z,96733.16
2022-09-20T06:48:22.191Z,96737.41
2022-09-20T06:50:52.426Z,96736.84
2022-09-20T06:53:27.913Z,96745.44
2022-09-20T06:55:57.069Z,96750.94
2022-09-20T06:58:26.853Z,96743.69
2022-09-20T07:00:55.285Z,96744.84
2022-09-20T07:03:23.750Z,96748.16
2022-09-20T07:05:52.084Z,96746.59
2022-09-20T07:08:20.434Z,96738.88
2022-09-20T07:10:48.808Z,96744.28
2022-09-20T07:13:19.211Z,96746.69
2022-09-20T07:15:49.032Z,96747.84
2022-09-20T07:18:17.544Z,96749.97
2022-09-20T07:20:45.857Z,96748.53
2022-09-20T07:23:15.816Z,96746.59
2022-09-20T07:25:44.208Z,96745.09
2022-09-20T07:28:12.586Z,96739.25
2022-09-20T07:30:41.035Z,96755.88
2022-09-20T07:33:12.077Z,96751.88
2022-09-20T07:35:41.709Z,96754.38
2022-09-20T07:38:10.381Z,96760.88
2022-09-20T07:40:38.811Z,96754.53
2022-09-20T07:43:07.790Z,96747.31
2022-09-20T07:45:39.091Z,96764.94
2022-09-20T07:48:09.610Z,96752.44
2022-09-20T07:50:39.329Z,96747.44
2022-09-20T07:53:07.652Z,96753.84
2022-09-20T07:55:36.018Z,96771.16
2022-09-20T07:58:04.362Z,96760.13
2022-09-20T08:00:32.823Z,96758.22
2022-09-20T08:03:01.425Z,96764.38
2022-09-20T08:05:29.853Z,96753.97
2022-09-20T08:08:01.080Z,96769.94
2022-09-20T08:10:29.401Z,96771.53
2022-09-20T08:15:46.198Z,96777.94
2022-09-20T08:18:15.794Z,96779.47
2022-09-20T08:20:44.154Z,96763.59
2022-09-20T08:23:23.343Z,96772.94
2022-09-20T08:25:52.506Z,96770.94
2022-09-20T08:28:20.782Z,96780.66
2022-09-20T08:30:49.098Z,96768.59
2022-09-20T08:33:17.500Z,96778.75
2022-09-20T08:35:49.662Z,96774.88
2022-09-20T08:41:12.654Z,96766.81
2022-09-20T08:43:45.563Z,96769.81
2022-09-20T08:46:22.899Z,96772.56
2022-09-20T08:48:52.212Z,96772.19
2022-09-20T08:51:23.211Z,96764.38
2022-09-20T08:53:54.622Z,96764.97
2022-09-20T08:56:23.535Z,96760.06
2022-09-20T08:58:53.383Z,96763.38
2022-09-20T09:01:23.792Z,96769.44
2022-09-20T09:03:52.697Z,96773.31
2022-09-20T09:06:22.775Z,96778.59
2022-09-20T09:08:53.688Z,96779.63
2022-09-20T09:11:23.547Z,96778.66
2022-09-20T09:13:55.150Z,96769.72
2022-09-20T09:16:33.513Z,96765.03
2022-09-20T09:19:33.330Z,96768.06
2022-09-20T09:22:03.211Z,96761.47
2022-09-20T09:24:32.969Z,96759.34
2022-09-20T09:27:10.298Z,96763.88
2022-09-20T09:29:50.556Z,96754.34
2022-09-20T09:32:24.646Z,96758.97
2022-09-20T09:34:52.903Z,96749.50
2022-09-20T09:37:28.865Z,96747.16
2022-09-20T09:40:12.859Z,96763.41
2022-09-20T09:42:50.235Z,96743.59
2022-09-20T09:45:31.523Z,96753.47
2022-09-20T09:48:02.276Z,96759.09
2022-09-20T09:50:32.079Z,96750.53
2022-09-20T09:53:02.933Z,96751.00
2022-09-20T09:55:43.457Z,96740.66
2022-09-20T09:58:13.136Z,96752.66
2022-09-20T10:00:46.625Z,96753.94
2022-09-20T10:03:24.168Z,96754.75
2022-09-20T10:06:08.232Z,96748.94
2022-09-20T10:08:45.843Z,96748.78
2022-09-20T10:11:26.033Z,96748.28
2022-09-20T10:14:05.539Z,96741.69
2022-09-20T10:16:58.184Z,96740.03
2022-09-20T10:19:39.164Z,96730.75
2022-09-20T10:22:11.246Z,96745.16
2022-09-20T10:24:51.393Z,96735.63
2022-09-20T10:27:31.497Z,96735.84
2022-09-20T10:30:06.327Z,96723.06
2022-09-20T10:32:47.473Z,96724.75
2022-09-20T10:35:24.192Z,96734.69
2022-09-20T10:38:01.351Z,96737.50
2022-09-20T10:40:48.227Z,96729.78
2022-09-20T10:43:30.718Z,96726.53
2022-09-20T10:46:31.426Z,96739.50
2022-09-20T10:49:02.886Z,96732.75
2022-09-20T10:51:41.659Z,96738.91
2022-09-20T10:54:21.176Z,96741.47
2022-09-20T10:56:52.873Z,96740.66
2022-09-20T10:59:31.597Z,96745.56
2022-09-20T11:02:18.660Z,96741.25
2022-09-20T11:04:58.917Z,96737.28
2022-09-20T11:07:36.950Z,96744.91
2022-09-20T11:10:09.119Z,96749.84
2022-09-20T11:12:39.626Z,96738.97
2022-09-20T11:15:15.869Z,96731.97
2022-09-20T11:17:47.126Z,96738.78
2022-09-20T11:20:20.830Z,96744.16
2022-09-20T11:22:51.195Z,96749.28
2022-09-20T11:25:27.328Z,96743.88
2022-09-20T11:28:02.328Z,96741.78
2022-09-20T11:30:34.712Z,96745.72
2022-09-20T11:33:06.139Z,96748.25
2022-09-20T11:35:36.190Z,96748.81
2022-09-20T11:38:14.470Z,96749.69
2022-09-20T11:40:47.429Z,96747.94
2022-09-20T11:43:17.040Z,96754.59
2022-09-20T11:45:49.585Z,96753.44
2022-09-20T11:48:25.175Z,96753.63
2022-09-20T11:51:18.172Z,96742.06
2022-09-20T11:53:59.791Z,96740.38
2022-09-20T11:56:30.996Z,96730.66
2022-09-20T11:59:00.907Z,96732.13
2022-09-20T12:01:32.607Z,96737.25
2022-09-20T12:04:30.656Z,96740.03
2022-09-20T12:07:02.452Z,96739.22
2022-09-20T12:09:36.799Z,96735.44
2022-09-20T12:12:20.580Z,96728.47
2022-09-20T12:14:55.433Z,96729.03
2022-09-20T12:18:09.757Z,96730.63
2022-09-20T12:21:02.321Z,96723.25
2022-09-20T12:24:01.863Z,96716.66
2022-09-20T12:26:45.269Z,96715.25
2022-09-20T12:29:53.316Z,96707.69
2022-09-20T12:32:42.522Z,96712.47
2022-09-20T12:37:55.637Z,96691.66
2022-09-20T12:40:26.083Z,96679.13
2022-09-20T12:42:57.883Z,96697.50
2022-09-20T12:45:26.323Z,96696.03
2022-09-20T12:47:55.972Z,96698.63
2022-09-20T12:50:42.050Z,96703.47
2022-09-20T12:53:15.292Z,96696.91
2022-09-20T12:55:55.116Z,96691.50
2022-09-20T12:58:26.918Z,96698.72
2022-09-20T13:01:29.531Z,96696.63
2022-09-20T13:04:32.415Z,96695.81
2022-09-20T13:07:43.994Z,96700.16
2022-09-20T13:10:29.237Z,96701.91
2022-09-20T13:13:03.498Z,96708.63
2022-09-20T13:15:33.264Z,96700.13
2022-09-20T13:18:03.293Z,96697.56
2022-09-20T13:20:35.201Z,96697.47
2022-09-20T13:23:05.436Z,96692.09
2022-09-20T13:25:35.666Z,96693.16
2022-09-20T13:28:09.790Z,96701.22
2022-09-20T13:30:40.704Z,96702.84
2022-09-20T13:33:23.499Z,96695.47
2022-09-20T13:35:54.645Z,96695.28
2022-09-20T13:38:30.140Z,96699.66
2022-09-20T13:41:06.344Z,96704.97
2022-09-20T13:43:38.239Z,96704.84
2022-09-20T13:46:12.072Z,96699.91
2022-09-20T13:48:41.139Z,96705.88
2022-09-20T13:51:19.325Z,96715.84
2022-09-20T13:53:48.502Z,96723.28
2022-09-20T13:56:22.485Z,96722.31
2022-09-20T13:58:51.485Z,96736.50
2022-09-20T14:01:25.722Z,96727.09
2022-09-20T14:03:54.586Z,96731.91
2022-09-20T14:06:28.116Z,96732.28
2022-09-20T14:08:57.744Z,96733.19
2022-09-20T14:11:28.635Z,96728.22
2022-09-20T14:13:58.299Z,96731.56
2022-09-20T14:16:31.008Z,96736.63
2022-09-20T14:19:00.235Z,96745.09
2022-09-20T14:21:29.705Z,96749.50
2022-09-20T14:24:02.245Z,96745.25
2022-09-20T14:26:34.777Z,96741.38
2022-09-20T14:29:30.641Z,96739.25
2022-09-20T14:32:00.283Z,96734.44
2022-09-20T14:34:28.830Z,96728.91
2022-09-20T14:37:13.525Z,96732.31
2022-09-20T14:39:48.856Z,96725.84
2022-09-20T14:42:30.120Z,96726.31
2022-09-20T14:44:58.635Z,96730.66
2022-09-20T14:47:28.510Z,96726.34
2022-09-20T14:49:58.094Z,96722.06
2022-09-20T14:52:37.518Z,96728.88
2022-09-20T14:55:19.260Z,96729.50
2022-09-20T14:57:49.428Z,96728.06
2022-09-20T15:00:20.653Z,96727.41
2022-09-20T15:02:48.994Z,96730.28
2022-09-20T15:05:20.638Z,96728.47
2022-09-20T15:07:49.047Z,96736.00
2022-09-20T15:10:17.570Z,96732.28
2022-09-20T15:12:46.074Z,96734.13
2022-09-20T15:15:17.476Z,96730.81
2022-09-20T15:17:46.971Z,96731.41
2022-09-20T15:20:23.226Z,96735.91
2022-09-20T15:22:52.803Z,96735.59
2022-09-20T15:25:22.735Z,96737.19
2022-09-20T15:27:51.899Z,96738.44
2022-09-20T15:30:22.395Z,96746.28
2022-09-20T15:32:50.774Z,96741.88
2022-09-20T15:35:19.488Z,96752.28
2022-09-20T15:37:47.871Z,96757.22
2022-09-20T15:40:16.631Z,96756.03
2022-09-20T15:42:45.926Z,96768.78
2022-09-20T15:45:14.854Z,96773.59
2022-09-20T15:47:44.731Z,96786.03
2022-09-20T15:50:13.068Z,96783.47
2022-09-20T15:52:41.625Z,96782.19
2022-09-20T15:55:12.019Z,96780.16
2022-09-20T15:57:41.964Z,96785.81
2022-09-20T16:00:11.146Z,96778.06
2022-09-20T16:02:39.482Z,96770.94
2022-09-20T16:05:10.995Z,96778.38
2022-09-20T16:07:39.323Z,96776.38
2022-09-20T16:10:08.900Z,96777.06
2022-09-20T16:12:37.193Z,96769.91
2022-09-20T16:15:06.251Z,96773.59
2022-09-20T16:39:09.058Z,96779.59
2022-09-20T16:41:39.151Z,96782.44
2022-09-20T16:44:08.039Z,96783.56
